Airfield :
LOGIN :

Register | Disclaimer

   EN    FR    IT 

 










Legend :    VFR   Marginal VFR   IFR   Intensive IFR   Very Intensive IFR
Visi :
Ceiling :
>= 8 km
>= 3000ft
5 to 8 km
1000 to 3000 ft
1500m to 5 km
500 to 1000 ft
800 to 1500m
200 to 500 ft
< 800m
< 200 ft
Symbols :   Thunderstorms  Fog  Heavy snow  Heavy precipitations  Wind > 20 kt
SIGMETs :     Misc.  Thunderstorms  Icing  Turbulence  Mountain Waves  Volcanic Ashes






- Airport Elevation : 202 ft
- IATA code : LGW


EGKK - London Gatwick

CURRENT METAR :
  • 180650Z 24007KT 9999 FEW009 10/09 Q0999

EXPIRED METARs :
  • 180620Z 23007KT 9999 FEW018 SCT033 10/09 Q0998
  • 180550Z 22007KT 9999 -SHRA FEW020 SCT033 10/09 Q0998 RESHRA
  • 180520Z 21003KT 9999 FEW025 SCT042 10/09 Q0998
  • 180450Z VRB03KT 9999 FEW017 10/08 Q0997 RERA
  • 180420Z 21007KT 130V280 6000 RA FEW006 BKN018 10/10 Q0998
  • 180350Z 16005KT 7000 RA FEW018 BKN029 10/09 Q0998

TAF TAF EGKK
Valid from the 18 at 06:00 until the 19 at 12:00 UTC


180506Z 1806/1912 23010KT 9999 SCT030
TEMPO 1809/1824 7000 SHRA
PROB30
TEMPO 1811/1823 23015G25KT 4000 +SHRA
PROB30 1900/1907 4000 BR
PROB40
TEMPO 1900/1909 7000 SHRA



MET'MAP, your aeronautical weather chart ! - Copyright ORBIFLY December 2007 - Disclaimer

ORBIFLY MET'MAP TEAM :

Programming & Development : Alexandra Zaïnal
Concept & Development : Baudouin d'Aumeries
Co-Development & Prog : Marc-Olivier Méhu
Technical & hardware support : Manuel Goepfert

Contact : metmap@orbifly.com




SOURCES & CREDITS :

   NOAA